sensor_id;sensor_type;location;lat;lon;timestamp;temperature;humidity
9057;DHT22;4563;54.756;9.400;2023-03-11T00:01:42;4.50;68.80
9057;DHT22;4563;54.756;9.400;2023-03-11T00:04:09;4.50;68.80
9057;DHT22;4563;54.756;9.400;2023-03-11T00:06:36;4.50;68.80
9057;DHT22;4563;54.756;9.400;2023-03-11T00:09:03;4.50;68.90
9057;DHT22;4563;54.756;9.400;2023-03-11T00:11:30;4.50;68.90
9057;DHT22;4563;54.756;9.400;2023-03-11T00:13:57;4.50;69.00
9057;DHT22;4563;54.756;9.400;2023-03-11T00:16:24;4.50;69.00
9057;DHT22;4563;54.756;9.400;2023-03-11T00:18:52;4.50;69.00
9057;DHT22;4563;54.756;9.400;2023-03-11T00:21:19;4.50;69.00
9057;DHT22;4563;54.756;9.400;2023-03-11T00:23:46;4.50;69.00
9057;DHT22;4563;54.756;9.400;2023-03-11T00:26:13;4.50;69.00
9057;DHT22;4563;54.756;9.400;2023-03-11T00:28:40;4.50;69.10
9057;DHT22;4563;54.756;9.400;2023-03-11T00:31:06;4.50;69.10
9057;DHT22;4563;54.756;9.400;2023-03-11T00:33:33;4.50;69.20
9057;DHT22;4563;54.756;9.400;2023-03-11T00:36:01;4.50;69.10
9057;DHT22;4563;54.756;9.400;2023-03-11T00:38:28;4.40;69.10
9057;DHT22;4563;54.756;9.400;2023-03-11T00:40:55;4.50;69.20
9057;DHT22;4563;54.756;9.400;2023-03-11T00:43:22;4.50;69.20
9057;DHT22;4563;54.756;9.400;2023-03-11T00:45:48;4.40;69.20
9057;DHT22;4563;54.756;9.400;2023-03-11T00:48:15;4.40;69.20
9057;DHT22;4563;54.756;9.400;2023-03-11T00:50:42;4.40;69.20
9057;DHT22;4563;54.756;9.400;2023-03-11T00:53:11;4.40;69.20
9057;DHT22;4563;54.756;9.400;2023-03-11T00:55:37;4.40;69.30
9057;DHT22;4563;54.756;9.400;2023-03-11T00:58:05;4.40;69.30
9057;DHT22;4563;54.756;9.400;2023-03-11T01:00:32;4.40;69.40
9057;DHT22;4563;54.756;9.400;2023-03-11T01:02:59;4.40;69.30
9057;DHT22;4563;54.756;9.400;2023-03-11T01:05:28;4.40;69.30
9057;DHT22;4563;54.756;9.400;2023-03-11T01:07:55;4.40;69.30
9057;DHT22;4563;54.756;9.400;2023-03-11T01:10:23;4.40;69.30
9057;DHT22;4563;54.756;9.400;2023-03-11T01:12:50;4.40;69.30
9057;DHT22;4563;54.756;9.400;2023-03-11T01:15:19;4.30;69.20
9057;DHT22;4563;54.756;9.400;2023-03-11T01:17:46;4.40;70.10
9057;DHT22;4563;54.756;9.400;2023-03-11T01:20:14;4.30;69.20
9057;DHT22;4563;54.756;9.400;2023-03-11T01:22:40;4.30;69.20
9057;DHT22;4563;54.756;9.400;2023-03-11T01:25:10;4.30;69.20
9057;DHT22;4563;54.756;9.400;2023-03-11T01:27:39;4.30;69.30
9057;DHT22;4563;54.756;9.400;2023-03-11T01:30:07;4.20;69.10
9057;DHT22;4563;54.756;9.400;2023-03-11T01:32:34;4.20;69.20
9057;DHT22;4563;54.756;9.400;2023-03-11T01:35:01;4.20;69.10
9057;DHT22;4563;54.756;9.400;2023-03-11T01:37:28;4.20;69.10
9057;DHT22;4563;54.756;9.400;2023-03-11T01:39:56;4.20;69.20
9057;DHT22;4563;54.756;9.400;2023-03-11T01:42:22;4.20;69.20
9057;DHT22;4563;54.756;9.400;2023-03-11T01:44:51;4.20;69.20
9057;DHT22;4563;54.756;9.400;2023-03-11T01:47:36;4.10;69.10
9057;DHT22;4563;54.756;9.400;2023-03-11T01:50:06;4.20;69.30
9057;DHT22;4563;54.756;9.400;2023-03-11T01:52:34;4.10;69.50
9057;DHT22;4563;54.756;9.400;2023-03-11T01:55:01;4.10;69.20
9057;DHT22;4563;54.756;9.400;2023-03-11T01:57:30;4.10;69.90
9057;DHT22;4563;54.756;9.400;2023-03-11T02:00:00;4.10;69.10
9057;DHT22;4563;54.756;9.400;2023-03-11T02:02:33;4.10;69.10
9057;DHT22;4563;54.756;9.400;2023-03-11T02:05:02;4.10;69.20
9057;DHT22;4563;54.756;9.400;2023-03-11T02:07:29;4.00;69.00
9057;DHT22;4563;54.756;9.400;2023-03-11T02:09:56;4.00;68.90
9057;DHT22;4563;54.756;9.400;2023-03-11T02:12:23;4.00;68.90
9057;DHT22;4563;54.756;9.400;2023-03-11T02:14:51;4.00;69.00
9057;DHT22;4563;54.756;9.400;2023-03-11T02:17:20;4.00;68.90
9057;DHT22;4563;54.756;9.400;2023-03-11T02:19:58;3.90;68.90
9057;DHT22;4563;54.756;9.400;2023-03-11T02:22:30;3.90;68.90
9057;DHT22;4563;54.756;9.400;2023-03-11T02:25:02;3.90;68.90
9057;DHT22;4563;54.756;9.400;2023-03-11T02:27:32;3.90;68.90
9057;DHT22;4563;54.756;9.400;2023-03-11T02:30:00;3.80;68.70
9057;DHT22;4563;54.756;9.400;2023-03-11T02:32:28;3.80;68.70
9057;DHT22;4563;54.756;9.400;2023-03-11T02:34:55;3.80;68.70
9057;DHT22;4563;54.756;9.400;2023-03-11T02:37:22;3.80;68.70
9057;DHT22;4563;54.756;9.400;2023-03-11T02:39:50;3.70;68.60
9057;DHT22;4563;54.756;9.400;2023-03-11T02:42:21;3.70;68.70
9057;DHT22;4563;54.756;9.400;2023-03-11T02:44:57;3.70;68.60
9057;DHT22;4563;54.756;9.400;2023-03-11T02:47:25;3.60;68.60
9057;DHT22;4563;54.756;9.400;2023-03-11T02:49:54;3.60;68.50
9057;DHT22;4563;54.756;9.400;2023-03-11T02:52:24;3.60;68.60
9057;DHT22;4563;54.756;9.400;2023-03-11T02:54:51;3.50;69.20
9057;DHT22;4563;54.756;9.400;2023-03-11T02:57:18;3.50;68.40
9057;DHT22;4563;54.756;9.400;2023-03-11T02:59:45;3.50;68.40
9057;DHT22;4563;54.756;9.400;2023-03-11T03:02:13;3.50;68.40
9057;DHT22;4563;54.756;9.400;2023-03-11T03:04:40;3.50;68.40
9057;DHT22;4563;54.756;9.400;2023-03-11T03:07:07;3.40;68.30
9057;DHT22;4563;54.756;9.400;2023-03-11T03:09:34;3.40;68.40
9057;DHT22;4563;54.756;9.400;2023-03-11T03:12:02;3.40;68.40
9057;DHT22;4563;54.756;9.400;2023-03-11T03:14:29;3.40;68.40
9057;DHT22;4563;54.756;9.400;2023-03-11T03:16:56;3.30;68.30
9057;DHT22;4563;54.756;9.400;2023-03-11T03:19:24;3.30;68.30
9057;DHT22;4563;54.756;9.400;2023-03-11T03:21:51;3.30;68.30
9057;DHT22;4563;54.756;9.400;2023-03-11T03:24:17;3.30;68.30
9057;DHT22;4563;54.756;9.400;2023-03-11T03:26:44;3.30;68.30
9057;DHT22;4563;54.756;9.400;2023-03-11T03:29:11;3.30;68.30
9057;DHT22;4563;54.756;9.400;2023-03-11T03:31:38;3.20;68.20
9057;DHT22;4563;54.756;9.400;2023-03-11T03:34:05;3.20;68.30
9057;DHT22;4563;54.756;9.400;2023-03-11T03:36:33;3.20;68.20
9057;DHT22;4563;54.756;9.400;2023-03-11T03:39:00;3.20;68.20
9057;DHT22;4563;54.756;9.400;2023-03-11T03:41:27;3.10;68.20
9057;DHT22;4563;54.756;9.400;2023-03-11T03:43:53;3.10;68.20
9057;DHT22;4563;54.756;9.400;2023-03-11T03:46:20;3.10;68.30
9057;DHT22;4563;54.756;9.400;2023-03-11T03:48:47;3.10;69.10
9057;DHT22;4563;54.756;9.400;2023-03-11T03:51:14;3.10;68.40
9057;DHT22;4563;54.756;9.400;2023-03-11T03:53:43;3.10;68.50
9057;DHT22;4563;54.756;9.400;2023-03-11T03:56:12;3.10;68.50
9057;DHT22;4563;54.756;9.400;2023-03-11T03:58:39;3.10;68.60
9057;DHT22;4563;54.756;9.400;2023-03-11T04:01:06;3.10;68.60
9057;DHT22;4563;54.756;9.400;2023-03-11T04:03:34;3.10;68.70
9057;DHT22;4563;54.756;9.400;2023-03-11T04:06:08;3.10;68.70
9057;DHT22;4563;54.756;9.400;2023-03-11T04:08:35;3.10;68.70
9057;DHT22;4563;54.756;9.400;2023-03-11T04:11:04;3.00;68.70
9057;DHT22;4563;54.756;9.400;2023-03-11T04:13:31;3.00;68.70
9057;DHT22;4563;54.756;9.400;2023-03-11T04:15:58;3.00;68.80
9057;DHT22;4563;54.756;9.400;2023-03-11T04:18:25;3.00;68.80
9057;DHT22;4563;54.756;9.400;2023-03-11T04:20:52;3.00;68.90
9057;DHT22;4563;54.756;9.400;2023-03-11T04:23:18;3.00;68.90
9057;DHT22;4563;54.756;9.400;2023-03-11T04:25:45;3.00;68.80
9057;DHT22;4563;54.756;9.400;2023-03-11T04:28:13;3.00;68.90
9057;DHT22;4563;54.756;9.400;2023-03-11T04:30:40;3.00;68.90
9057;DHT22;4563;54.756;9.400;2023-03-11T04:33:07;3.00;68.80
9057;DHT22;4563;54.756;9.400;2023-03-11T04:35:34;3.00;68.80
9057;DHT22;4563;54.756;9.400;2023-03-11T04:38:03;2.90;68.80
9057;DHT22;4563;54.756;9.400;2023-03-11T04:40:30;2.90;68.70
9057;DHT22;4563;54.756;9.400;2023-03-11T04:42:57;2.90;68.70
9057;DHT22;4563;54.756;9.400;2023-03-11T04:45:25;2.90;68.70
9057;DHT22;4563;54.756;9.400;2023-03-11T04:47:51;2.90;68.60
9057;DHT22;4563;54.756;9.400;2023-03-11T04:50:18;2.80;68.60
9057;DHT22;4563;54.756;9.400;2023-03-11T04:52:45;2.90;68.60
9057;DHT22;4563;54.756;9.400;2023-03-11T04:55:12;2.80;68.50
9057;DHT22;4563;54.756;9.400;2023-03-11T04:57:39;2.80;68.50
9057;DHT22;4563;54.756;9.400;2023-03-11T05:00:08;2.80;68.50
9057;DHT22;4563;54.756;9.400;2023-03-11T05:02:38;2.70;68.40
9057;DHT22;4563;54.756;9.400;2023-03-11T05:05:07;2.70;68.40
9057;DHT22;4563;54.756;9.400;2023-03-11T05:07:34;2.70;68.40
9057;DHT22;4563;54.756;9.400;2023-03-11T05:10:02;2.70;68.40
9057;DHT22;4563;54.756;9.400;2023-03-11T05:12:29;2.60;68.30
9057;DHT22;4563;54.756;9.400;2023-03-11T05:14:55;2.60;68.20
9057;DHT22;4563;54.756;9.400;2023-03-11T05:17:22;2.60;68.20
9057;DHT22;4563;54.756;9.400;2023-03-11T05:19:51;2.60;68.20
9057;DHT22;4563;54.756;9.400;2023-03-11T05:22:18;2.60;68.30
9057;DHT22;4563;54.756;9.400;2023-03-11T05:24:45;2.60;68.30
9057;DHT22;4563;54.756;9.400;2023-03-11T05:27:12;2.50;68.20
9057;DHT22;4563;54.756;9.400;2023-03-11T05:29:42;2.60;68.30
9057;DHT22;4563;54.756;9.400;2023-03-11T05:32:09;2.50;68.20
9057;DHT22;4563;54.756;9.400;2023-03-11T05:34:36;2.50;68.20
9057;DHT22;4563;54.756;9.400;2023-03-11T05:37:04;2.50;68.20
9057;DHT22;4563;54.756;9.400;2023-03-11T05:39:32;2.50;68.20
9057;DHT22;4563;54.756;9.400;2023-03-11T05:42:02;2.40;68.10
9057;DHT22;4563;54.756;9.400;2023-03-11T05:44:29;2.40;68.20
9057;DHT22;4563;54.756;9.400;2023-03-11T05:46:56;2.40;68.20
9057;DHT22;4563;54.756;9.400;2023-03-11T05:49:23;2.40;68.20
9057;DHT22;4563;54.756;9.400;2023-03-11T05:51:50;2.40;68.10
9057;DHT22;4563;54.756;9.400;2023-03-11T05:54:19;2.40;68.20
9057;DHT22;4563;54.756;9.400;2023-03-11T05:56:46;2.40;68.20
9057;DHT22;4563;54.756;9.400;2023-03-11T05:59:14;2.30;68.10
9057;DHT22;4563;54.756;9.400;2023-03-11T06:01:41;2.30;68.20
9057;DHT22;4563;54.756;9.400;2023-03-11T06:04:08;2.30;68.20
9057;DHT22;4563;54.756;9.400;2023-03-11T06:06:36;2.30;68.20
9057;DHT22;4563;54.756;9.400;2023-03-11T06:09:04;2.30;68.20
9057;DHT22;4563;54.756;9.400;2023-03-11T06:11:32;2.30;68.20
9057;DHT22;4563;54.756;9.400;2023-03-11T06:13:59;2.30;68.20
9057;DHT22;4563;54.756;9.400;2023-03-11T06:16:25;2.30;68.20
9057;DHT22;4563;54.756;9.400;2023-03-11T06:18:52;2.20;68.00
9057;DHT22;4563;54.756;9.400;2023-03-11T06:21:20;2.20;68.00
9057;DHT22;4563;54.756;9.400;2023-03-11T06:23:48;2.20;68.10
9057;DHT22;4563;54.756;9.400;2023-03-11T06:26:16;2.20;68.10
9057;DHT22;4563;54.756;9.400;2023-03-11T06:28:46;2.20;68.10
9057;DHT22;4563;54.756;9.400;2023-03-11T06:31:15;2.20;68.10
9057;DHT22;4563;54.756;9.400;2023-03-11T06:33:42;2.20;68.10
9057;DHT22;4563;54.756;9.400;2023-03-11T06:36:12;2.20;68.10
9057;DHT22;4563;54.756;9.400;2023-03-11T06:38:39;2.20;68.10
9057;DHT22;4563;54.756;9.400;2023-03-11T06:41:06;2.20;68.00
9057;DHT22;4563;54.756;9.400;2023-03-11T06:43:34;2.20;68.10
9057;DHT22;4563;54.756;9.400;2023-03-11T06:46:07;2.10;68.00
9057;DHT22;4563;54.756;9.400;2023-03-11T06:48:34;2.10;68.00
9057;DHT22;4563;54.756;9.400;2023-03-11T06:51:00;2.10;67.90
9057;DHT22;4563;54.756;9.400;2023-03-11T06:53:28;2.10;67.90
9057;DHT22;4563;54.756;9.400;2023-03-11T06:55:59;2.10;67.90
9057;DHT22;4563;54.756;9.400;2023-03-11T06:58:28;2.10;67.90
9057;DHT22;4563;54.756;9.400;2023-03-11T07:00:59;2.10;67.90
9057;DHT22;4563;54.756;9.400;2023-03-11T07:03:27;2.10;67.90
9057;DHT22;4563;54.756;9.400;2023-03-11T07:05:54;2.10;67.90
9057;DHT22;4563;54.756;9.400;2023-03-11T07:08:21;2.10;67.90
9057;DHT22;4563;54.756;9.400;2023-03-11T07:10:59;2.10;67.90
9057;DHT22;4563;54.756;9.400;2023-03-11T07:13:26;2.10;67.90
9057;DHT22;4563;54.756;9.400;2023-03-11T07:15:59;2.10;67.90
9057;DHT22;4563;54.756;9.400;2023-03-11T07:18:27;2.10;67.90
9057;DHT22;4563;54.756;9.400;2023-03-11T07:20:54;2.10;67.90
9057;DHT22;4563;54.756;9.400;2023-03-11T07:23:21;2.10;67.80
9057;DHT22;4563;54.756;9.400;2023-03-11T07:25:47;2.10;67.90
9057;DHT22;4563;54.756;9.400;2023-03-11T07:28:16;2.10;67.80
9057;DHT22;4563;54.756;9.400;2023-03-11T07:30:43;2.10;67.80
9057;DHT22;4563;54.756;9.400;2023-03-11T07:33:11;2.10;67.80
9057;DHT22;4563;54.756;9.400;2023-03-11T07:35:39;2.10;67.80
9057;DHT22;4563;54.756;9.400;2023-03-11T07:38:06;2.10;67.80
9057;DHT22;4563;54.756;9.400;2023-03-11T07:40:33;2.20;67.90
9057;DHT22;4563;54.756;9.400;2023-03-11T07:43:00;2.20;67.80
9057;DHT22;4563;54.756;9.400;2023-03-11T07:45:27;2.20;67.80
9057;DHT22;4563;54.756;9.400;2023-03-11T07:47:53;2.20;67.80
9057;DHT22;4563;54.756;9.400;2023-03-11T07:50:20;2.20;67.70
9057;DHT22;4563;54.756;9.400;2023-03-11T07:52:49;2.20;67.70
9057;DHT22;4563;54.756;9.400;2023-03-11T07:55:15;2.30;67.70
9057;DHT22;4563;54.756;9.400;2023-03-11T07:57:42;2.30;67.70
9057;DHT22;4563;54.756;9.400;2023-03-11T08:00:10;2.30;67.70
9057;DHT22;4563;54.756;9.400;2023-03-11T08:02:37;2.30;67.60
9057;DHT22;4563;54.756;9.400;2023-03-11T08:05:04;2.30;67.50
9057;DHT22;4563;54.756;9.400;2023-03-11T08:07:32;2.40;67.50
9057;DHT22;4563;54.756;9.400;2023-03-11T08:10:00;2.40;67.40
9057;DHT22;4563;54.756;9.400;2023-03-11T08:12:28;2.40;67.30
9057;DHT22;4563;54.756;9.400;2023-03-11T08:14:55;2.40;67.10
9057;DHT22;4563;54.756;9.400;2023-03-11T08:17:22;2.40;67.00
9057;DHT22;4563;54.756;9.400;2023-03-11T08:19:49;2.40;66.90
9057;DHT22;4563;54.756;9.400;2023-03-11T08:22:16;2.50;66.90
9057;DHT22;4563;54.756;9.400;2023-03-11T08:24:42;2.50;66.80
9057;DHT22;4563;54.756;9.400;2023-03-11T08:27:11;2.50;66.60
9057;DHT22;4563;54.756;9.400;2023-03-11T08:29:37;2.60;66.60
9057;DHT22;4563;54.756;9.400;2023-03-11T08:32:05;2.60;66.50
9057;DHT22;4563;54.756;9.400;2023-03-11T08:34:32;2.60;66.50
9057;DHT22;4563;54.756;9.400;2023-03-11T08:36:59;2.60;66.40
9057;DHT22;4563;54.756;9.400;2023-03-11T08:39:26;2.60;66.30
9057;DHT22;4563;54.756;9.400;2023-03-11T08:41:53;2.70;66.40
9057;DHT22;4563;54.756;9.400;2023-03-11T08:44:21;2.80;66.40
9057;DHT22;4563;54.756;9.400;2023-03-11T08:46:48;2.80;66.30
9057;DHT22;4563;54.756;9.400;2023-03-11T08:49:15;2.80;66.20
9057;DHT22;4563;54.756;9.400;2023-03-11T08:51:41;2.80;66.10
9057;DHT22;4563;54.756;9.400;2023-03-11T08:54:08;2.90;66.20
9057;DHT22;4563;54.756;9.400;2023-03-11T08:56:35;2.90;66.10
9057;DHT22;4563;54.756;9.400;2023-03-11T08:59:02;2.90;66.20
9057;DHT22;4563;54.756;9.400;2023-03-11T09:01:30;3.00;66.20
9057;DHT22;4563;54.756;9.400;2023-03-11T09:03:57;3.00;66.10
9057;DHT22;4563;54.756;9.400;2023-03-11T09:06:24;3.10;66.20
9057;DHT22;4563;54.756;9.400;2023-03-11T09:08:51;3.10;66.20
9057;DHT22;4563;54.756;9.400;2023-03-11T09:11:18;3.20;66.30
9057;DHT22;4563;54.756;9.400;2023-03-11T09:13:47;3.20;66.40
9057;DHT22;4563;54.756;9.400;2023-03-11T09:16:16;3.20;66.50
9057;DHT22;4563;54.756;9.400;2023-03-11T09:18:45;3.30;66.50
9057;DHT22;4563;54.756;9.400;2023-03-11T09:21:12;3.30;66.40
9057;DHT22;4563;54.756;9.400;2023-03-11T09:23:39;3.40;66.60
9057;DHT22;4563;54.756;9.400;2023-03-11T09:26:06;3.40;66.60
9057;DHT22;4563;54.756;9.400;2023-03-11T09:28:33;3.40;66.60
9057;DHT22;4563;54.756;9.400;2023-03-11T09:31:00;3.50;66.60
9057;DHT22;4563;54.756;9.400;2023-03-11T09:33:26;3.60;66.70
9057;DHT22;4563;54.756;9.400;2023-03-11T09:35:56;3.60;66.80
9057;DHT22;4563;54.756;9.400;2023-03-11T09:38:22;3.70;67.00
9057;DHT22;4563;54.756;9.400;2023-03-11T09:40:57;3.70;67.00
9057;DHT22;4563;54.756;9.400;2023-03-11T09:43:43;3.80;67.20
9057;DHT22;4563;54.756;9.400;2023-03-11T09:46:29;3.80;67.20
9057;DHT22;4563;54.756;9.400;2023-03-11T09:49:08;3.90;67.40
9057;DHT22;4563;54.756;9.400;2023-03-11T09:51:49;3.90;67.50
9057;DHT22;4563;54.756;9.400;2023-03-11T09:54:19;4.00;67.60
9057;DHT22;4563;54.756;9.400;2023-03-11T09:56:47;4.00;67.60
9057;DHT22;4563;54.756;9.400;2023-03-11T09:59:17;4.00;67.50
9057;DHT22;4563;54.756;9.400;2023-03-11T10:01:47;4.10;67.70
9057;DHT22;4563;54.756;9.400;2023-03-11T10:04:18;4.20;67.80
9057;DHT22;4563;54.756;9.400;2023-03-11T10:06:47;4.20;67.90
9057;DHT22;4563;54.756;9.400;2023-03-11T10:09:30;4.20;68.00
9057;DHT22;4563;54.756;9.400;2023-03-11T10:12:08;4.30;68.00
9057;DHT22;4563;54.756;9.400;2023-03-11T10:14:57;4.40;68.10
9057;DHT22;4563;54.756;9.400;2023-03-11T10:18:00;4.40;68.80
9057;DHT22;4563;54.756;9.400;2023-03-11T10:20:36;4.50;68.00
9057;DHT22;4563;54.756;9.400;2023-03-11T10:23:14;4.50;67.90
9057;DHT22;4563;54.756;9.400;2023-03-11T10:25:51;4.60;68.00
9057;DHT22;4563;54.756;9.400;2023-03-11T10:28:21;4.70;68.00
9057;DHT22;4563;54.756;9.400;2023-03-11T10:30:53;4.70;68.00
9057;DHT22;4563;54.756;9.400;2023-03-11T10:33:25;4.80;68.00
9057;DHT22;4563;54.756;9.400;2023-03-11T10:35:57;4.80;67.90
9057;DHT22;4563;54.756;9.400;2023-03-11T10:38:27;4.90;67.80
9057;DHT22;4563;54.756;9.400;2023-03-11T10:40:59;4.90;67.60
9057;DHT22;4563;54.756;9.400;2023-03-11T10:43:31;4.90;67.40
9057;DHT22;4563;54.756;9.400;2023-03-11T10:45:59;5.00;67.40
9057;DHT22;4563;54.756;9.400;2023-03-11T10:48:28;5.10;67.50
9057;DHT22;4563;54.756;9.400;2023-03-11T10:51:00;5.10;67.10
9057;DHT22;4563;54.756;9.400;2023-03-11T10:53:29;5.20;67.20
9057;DHT22;4563;54.756;9.400;2023-03-11T10:55:57;5.30;67.20
9057;DHT22;4563;54.756;9.400;2023-03-11T10:58:26;5.30;67.00
9057;DHT22;4563;54.756;9.400;2023-03-11T11:01:06;5.40;67.20
9057;DHT22;4563;54.756;9.400;2023-03-11T11:03:40;5.40;67.00
9057;DHT22;4563;54.756;9.400;2023-03-11T11:06:18;5.50;67.00
9057;DHT22;4563;54.756;9.400;2023-03-11T11:08:48;5.60;67.00
9057;DHT22;4563;54.756;9.400;2023-03-11T11:11:20;5.60;66.80
9057;DHT22;4563;54.756;9.400;2023-03-11T11:13:55;5.70;66.90
9057;DHT22;4563;54.756;9.400;2023-03-11T11:16:22;5.80;66.70
9057;DHT22;4563;54.756;9.400;2023-03-11T11:18:53;5.80;66.50
9057;DHT22;4563;54.756;9.400;2023-03-11T11:21:28;5.90;66.40
9057;DHT22;4563;54.756;9.400;2023-03-11T11:24:08;5.90;66.40
9057;DHT22;4563;54.756;9.400;2023-03-11T11:26:37;6.00;66.30
9057;DHT22;4563;54.756;9.400;2023-03-11T11:29:06;6.00;65.90
9057;DHT22;4563;54.756;9.400;2023-03-11T11:31:39;6.10;66.30
9057;DHT22;4563;54.756;9.400;2023-03-11T11:34:27;6.10;66.40
9057;DHT22;4563;54.756;9.400;2023-03-11T11:36:55;6.20;66.90
9057;DHT22;4563;54.756;9.400;2023-03-11T11:39:26;6.20;67.10
9057;DHT22;4563;54.756;9.400;2023-03-11T11:41:55;6.20;67.40
9057;DHT22;4563;54.756;9.400;2023-03-11T11:44:27;6.30;67.60
9057;DHT22;4563;54.756;9.400;2023-03-11T11:46:57;6.30;67.90
9057;DHT22;4563;54.756;9.400;2023-03-11T11:49:28;6.30;68.20
9057;DHT22;4563;54.756;9.400;2023-03-11T11:51:59;6.30;68.20
9057;DHT22;4563;54.756;9.400;2023-03-11T11:54:33;6.40;67.90
9057;DHT22;4563;54.756;9.400;2023-03-11T11:57:10;6.50;67.60
9057;DHT22;4563;54.756;9.400;2023-03-11T11:59:37;6.50;67.70
9057;DHT22;4563;54.756;9.400;2023-03-11T12:02:16;6.60;67.70
9057;DHT22;4563;54.756;9.400;2023-03-11T12:04:51;6.70;67.80
9057;DHT22;4563;54.756;9.400;2023-03-11T12:07:33;6.80;67.70
9057;DHT22;4563;54.756;9.400;2023-03-11T12:10:15;6.90;67.70
9057;DHT22;4563;54.756;9.400;2023-03-11T12:12:47;7.00;67.50
9057;DHT22;4563;54.756;9.400;2023-03-11T12:15:19;7.20;67.40
9057;DHT22;4563;54.756;9.400;2023-03-11T12:17:49;7.30;67.20
9057;DHT22;4563;54.756;9.400;2023-03-11T12:20:24;7.50;67.10
9057;DHT22;4563;54.756;9.400;2023-03-11T12:23:14;7.60;67.00
9057;DHT22;4563;54.756;9.400;2023-03-11T12:25:58;7.70;67.10
9057;DHT22;4563;54.756;9.400;2023-03-11T12:28:35;7.90;67.10
9057;DHT22;4563;54.756;9.400;2023-03-11T12:31:06;8.00;66.60
9057;DHT22;4563;54.756;9.400;2023-03-11T12:33:36;8.10;66.10
9057;DHT22;4563;54.756;9.400;2023-03-11T12:36:05;8.20;65.90
9057;DHT22;4563;54.756;9.400;2023-03-11T12:38:36;8.30;65.50
9057;DHT22;4563;54.756;9.400;2023-03-11T12:41:07;8.40;65.40
9057;DHT22;4563;54.756;9.400;2023-03-11T12:47:02;8.60;66.00
9057;DHT22;4563;54.756;9.400;2023-03-11T12:49:30;8.60;66.00
9057;DHT22;4563;54.756;9.400;2023-03-11T12:52:03;8.70;66.50
9057;DHT22;4563;54.756;9.400;2023-03-11T12:54:31;8.70;66.40
9057;DHT22;4563;54.756;9.400;2023-03-11T12:57:00;8.70;66.80
9057;DHT22;4563;54.756;9.400;2023-03-11T13:05:55;8.90;67.80
9057;DHT22;4563;54.756;9.400;2023-03-11T13:08:24;9.00;68.00
9057;DHT22;4563;54.756;9.400;2023-03-11T13:10:53;9.10;68.10
9057;DHT22;4563;54.756;9.400;2023-03-11T13:13:36;9.20;67.60
9057;DHT22;4563;54.756;9.400;2023-03-11T13:16:34;9.20;67.80
9057;DHT22;4563;54.756;9.400;2023-03-11T13:19:35;9.40;67.90
9057;DHT22;4563;54.756;9.400;2023-03-11T13:22:04;9.50;67.60
9057;DHT22;4563;54.756;9.400;2023-03-11T13:24:48;9.60;67.90
9057;DHT22;4563;54.756;9.400;2023-03-11T13:27:27;9.70;67.70
9057;DHT22;4563;54.756;9.400;2023-03-11T13:30:06;9.80;67.10
9057;DHT22;4563;54.756;9.400;2023-03-11T13:35:51;9.90;66.60
9057;DHT22;4563;54.756;9.400;2023-03-11T13:38:35;9.90;66.40
9057;DHT22;4563;54.756;9.400;2023-03-11T13:41:13;9.90;65.90
9057;DHT22;4563;54.756;9.400;2023-03-11T13:43:44;9.90;66.10
9057;DHT22;4563;54.756;9.400;2023-03-11T13:46:21;9.80;65.50
9057;DHT22;4563;54.756;9.400;2023-03-11T13:48:49;9.70;65.30
9057;DHT22;4563;54.756;9.400;2023-03-11T13:51:23;9.60;65.10
9057;DHT22;4563;54.756;9.400;2023-03-11T13:53:55;9.50;65.10
9057;DHT22;4563;54.756;9.400;2023-03-11T13:56:25;9.40;65.50
9057;DHT22;4563;54.756;9.400;2023-03-11T13:58:53;9.30;65.60
9057;DHT22;4563;54.756;9.400;2023-03-11T14:01:22;9.20;65.80
9057;DHT22;4563;54.756;9.400;2023-03-11T14:03:50;9.20;66.00
9057;DHT22;4563;54.756;9.400;2023-03-11T14:06:17;9.10;66.30
9057;DHT22;4563;54.756;9.400;2023-03-11T14:08:52;9.00;66.60
9057;DHT22;4563;54.756;9.400;2023-03-11T14:11:19;9.00;67.00
9057;DHT22;4563;54.756;9.400;2023-03-11T14:13:50;9.00;67.30
9057;DHT22;4563;54.756;9.400;2023-03-11T14:16:21;9.00;67.50
9057;DHT22;4563;54.756;9.400;2023-03-11T14:19:01;9.00;67.60
9057;DHT22;4563;54.756;9.400;2023-03-11T14:21:28;9.00;67.90
9057;DHT22;4563;54.756;9.400;2023-03-11T14:23:56;9.00;67.90
9057;DHT22;4563;54.756;9.400;2023-03-11T14:26:25;9.00;67.70
9057;DHT22;4563;54.756;9.400;2023-03-11T14:28:55;9.10;67.50
9057;DHT22;4563;54.756;9.400;2023-03-11T14:31:30;9.10;67.20
9057;DHT22;4563;54.756;9.400;2023-03-11T14:33:58;9.10;66.80
9057;DHT22;4563;54.756;9.400;2023-03-11T14:36:29;9.10;66.50
9057;DHT22;4563;54.756;9.400;2023-03-11T14:38:56;9.20;63.20
9057;DHT22;4563;54.756;9.400;2023-03-11T14:41:23;9.20;65.20
9057;DHT22;4563;54.756;9.400;2023-03-11T14:43:52;9.20;65.50
9057;DHT22;4563;54.756;9.400;2023-03-11T14:46:21;9.20;65.50
9057;DHT22;4563;54.756;9.400;2023-03-11T14:48:53;9.10;65.50
9057;DHT22;4563;54.756;9.400;2023-03-11T14:51:25;9.10;65.50
9057;DHT22;4563;54.756;9.400;2023-03-11T14:54:03;9.00;65.10
9057;DHT22;4563;54.756;9.400;2023-03-11T14:56:35;9.10;65.40
9057;DHT22;4563;54.756;9.400;2023-03-11T14:59:06;9.00;65.40
9057;DHT22;4563;54.756;9.400;2023-03-11T15:01:37;9.00;65.30
9057;DHT22;4563;54.756;9.400;2023-03-11T15:04:09;9.00;65.50
9057;DHT22;4563;54.756;9.400;2023-03-11T15:06:39;8.90;65.50
9057;DHT22;4563;54.756;9.400;2023-03-11T15:09:09;8.90;65.50
9057;DHT22;4563;54.756;9.400;2023-03-11T15:11:47;8.90;65.40
9057;DHT22;4563;54.756;9.400;2023-03-11T15:14:19;8.80;66.00
9057;DHT22;4563;54.756;9.400;2023-03-11T15:16:46;8.80;65.10
9057;DHT22;4563;54.756;9.400;2023-03-11T15:19:22;8.70;65.00
9057;DHT22;4563;54.756;9.400;2023-03-11T15:21:57;8.70;65.20
9057;DHT22;4563;54.756;9.400;2023-03-11T15:24:25;8.60;65.00
9057;DHT22;4563;54.756;9.400;2023-03-11T15:26:54;8.50;65.10
9057;DHT22;4563;54.756;9.400;2023-03-11T15:29:21;8.50;65.20
9057;DHT22;4563;54.756;9.400;2023-03-11T15:31:48;8.40;65.10
9057;DHT22;4563;54.756;9.400;2023-03-11T15:34:25;8.30;65.20
9057;DHT22;4563;54.756;9.400;2023-03-11T15:37:17;8.30;66.30
9057;DHT22;4563;54.756;9.400;2023-03-11T15:39:47;8.20;65.90
9057;DHT22;4563;54.756;9.400;2023-03-11T15:42:23;8.20;66.00
9057;DHT22;4563;54.756;9.400;2023-03-11T15:45:12;8.10;66.10
9057;DHT22;4563;54.756;9.400;2023-03-11T15:47:40;8.00;66.40
9057;DHT22;4563;54.756;9.400;2023-03-11T15:50:19;8.00;66.40
9057;DHT22;4563;54.756;9.400;2023-03-11T15:52:47;7.90;66.60
9057;DHT22;4563;54.756;9.400;2023-03-11T15:55:14;7.80;66.50
9057;DHT22;4563;54.756;9.400;2023-03-11T15:57:43;7.80;66.70
9057;DHT22;4563;54.756;9.400;2023-03-11T16:00:17;7.80;67.00
9057;DHT22;4563;54.756;9.400;2023-03-11T16:02:44;7.80;67.10
9057;DHT22;4563;54.756;9.400;2023-03-11T16:05:15;7.70;67.10
9057;DHT22;4563;54.756;9.400;2023-03-11T16:07:41;7.70;67.30
9057;DHT22;4563;54.756;9.400;2023-03-11T16:10:10;7.70;67.40
9057;DHT22;4563;54.756;9.400;2023-03-11T16:12:37;7.60;67.50
9057;DHT22;4563;54.756;9.400;2023-03-11T16:15:05;7.60;67.70
9057;DHT22;4563;54.756;9.400;2023-03-11T16:17:32;7.60;67.80
9057;DHT22;4563;54.756;9.400;2023-03-11T16:19:59;7.50;67.60
9057;DHT22;4563;54.756;9.400;2023-03-11T16:22:31;7.50;67.80
9057;DHT22;4563;54.756;9.400;2023-03-11T16:25:00;7.40;67.80
9057;DHT22;4563;54.756;9.400;2023-03-11T16:27:27;7.40;67.80
9057;DHT22;4563;54.756;9.400;2023-03-11T16:29:54;7.40;67.80
9057;DHT22;4563;54.756;9.400;2023-03-11T16:32:21;7.40;67.70
9057;DHT22;4563;54.756;9.400;2023-03-11T16:34:48;7.30;67.60
9057;DHT22;4563;54.756;9.400;2023-03-11T16:37:16;7.30;67.60
9057;DHT22;4563;54.756;9.400;2023-03-11T16:39:46;7.30;67.70
9057;DHT22;4563;54.756;9.400;2023-03-11T16:42:20;7.30;67.70
9057;DHT22;4563;54.756;9.400;2023-03-11T16:44:48;7.30;67.70
9057;DHT22;4563;54.756;9.400;2023-03-11T16:47:15;7.20;67.60